East McDonough, New York
Current Conditions -  °F | °C
As of 11:53 AM on Thursday 23 Oct 2014 (Local Time) from KBGM Reporting Station
Overcast Overcast  
Wind Chill: 38°   Ceiling: 1300
Heat Index: 45°   Visibility: 10mi
Dew Point: 40°   Wind: 17mph
Humidity: 82%   Direction: 350°N
Pressure: 29.89"   Gusts: 26mph
Location:  42.4446°N, 75.6311°W
Report Text: KBGM 231553Z 35015G23KT 10SM OVC013 07/04 A2989 RMK AO2 SLP130 T00720044
Loading
Personal Weather Stations






























Interactive Weather Map
Tropical Storm Tracking
New forecast layout! Learn more

10-Day Weather Forecast

Advertisements
Track Severe Weather on mobile